sensor_id;sensor_type;location;lat;lon;timestamp;pressure;altitude;pressure_sealevel;temperature
65569;BMP180;52211;50.154;8.682;2023-04-24T00:01:34;98863.00;;;17.50
65569;BMP180;52211;50.154;8.682;2023-04-24T00:04:06;98868.00;;;17.50
65569;BMP180;52211;50.154;8.682;2023-04-24T00:06:34;98864.00;;;17.50
65569;BMP180;52211;50.154;8.682;2023-04-24T00:09:03;98858.00;;;17.50
65569;BMP180;52211;50.154;8.682;2023-04-24T00:11:30;98857.00;;;17.50
65569;BMP180;52211;50.154;8.682;2023-04-24T00:13:59;98854.00;;;17.50
65569;BMP180;52211;50.154;8.682;2023-04-24T00:16:29;98855.00;;;17.60
65569;BMP180;52211;50.154;8.682;2023-04-24T00:18:58;98858.00;;;17.60
65569;BMP180;52211;50.154;8.682;2023-04-24T00:21:30;98858.00;;;17.60
65569;BMP180;52211;50.154;8.682;2023-04-24T00:23:59;98857.00;;;17.60
65569;BMP180;52211;50.154;8.682;2023-04-24T00:26:28;98848.00;;;17.60
65569;BMP180;52211;50.154;8.682;2023-04-24T00:28:55;98844.00;;;17.60
65569;BMP180;52211;50.154;8.682;2023-04-24T00:31:28;98845.00;;;17.60
65569;BMP180;52211;50.154;8.682;2023-04-24T00:33:55;98840.00;;;17.60
65569;BMP180;52211;50.154;8.682;2023-04-24T00:36:27;98842.00;;;17.60
65569;BMP180;52211;50.154;8.682;2023-04-24T00:39:04;98841.00;;;17.60
65569;BMP180;52211;50.154;8.682;2023-04-24T00:41:33;98836.00;;;17.60
65569;BMP180;52211;50.154;8.682;2023-04-24T00:44:02;98839.00;;;17.60
65569;BMP180;52211;50.154;8.682;2023-04-24T00:46:32;98836.00;;;17.60
65569;BMP180;52211;50.154;8.682;2023-04-24T00:49:02;98840.00;;;17.60
65569;BMP180;52211;50.154;8.682;2023-04-24T00:51:31;98831.00;;;17.60
65569;BMP180;52211;50.154;8.682;2023-04-24T00:54:00;98831.00;;;17.60
65569;BMP180;52211;50.154;8.682;2023-04-24T00:56:28;98819.00;;;17.60
65569;BMP180;52211;50.154;8.682;2023-04-24T00:58:58;98815.00;;;17.60
65569;BMP180;52211;50.154;8.682;2023-04-24T01:01:26;98819.00;;;17.60
65569;BMP180;52211;50.154;8.682;2023-04-24T01:03:56;98814.00;;;17.50
65569;BMP180;52211;50.154;8.682;2023-04-24T01:06:28;98814.00;;;17.50
65569;BMP180;52211;50.154;8.682;2023-04-24T01:08:55;98820.00;;;17.50
65569;BMP180;52211;50.154;8.682;2023-04-24T01:11:25;98814.00;;;17.50
65569;BMP180;52211;50.154;8.682;2023-04-24T01:13:55;98811.00;;;17.40
65569;BMP180;52211;50.154;8.682;2023-04-24T01:16:25;98816.00;;;17.50
65569;BMP180;52211;50.154;8.682;2023-04-24T01:18:53;98820.00;;;17.40
65569;BMP180;52211;50.154;8.682;2023-04-24T01:21:26;98815.00;;;17.40
65569;BMP180;52211;50.154;8.682;2023-04-24T01:23:56;98814.00;;;17.40
65569;BMP180;52211;50.154;8.682;2023-04-24T01:26:26;98802.00;;;17.40
65569;BMP180;52211;50.154;8.682;2023-04-24T01:28:57;98793.00;;;17.40
65569;BMP180;52211;50.154;8.682;2023-04-24T01:31:29;98798.00;;;17.40
65569;BMP180;52211;50.154;8.682;2023-04-24T01:33:57;98799.00;;;17.40
65569;BMP180;52211;50.154;8.682;2023-04-24T01:36:30;98802.00;;;17.30
65569;BMP180;52211;50.154;8.682;2023-04-24T01:38:58;98802.00;;;17.40
65569;BMP180;52211;50.154;8.682;2023-04-24T01:41:30;98800.00;;;17.40
65569;BMP180;52211;50.154;8.682;2023-04-24T01:44:03;98805.00;;;17.40
65569;BMP180;52211;50.154;8.682;2023-04-24T01:46:34;98811.00;;;17.40
65569;BMP180;52211;50.154;8.682;2023-04-24T01:49:07;98811.00;;;17.40
65569;BMP180;52211;50.154;8.682;2023-04-24T01:51:38;98818.00;;;17.40
65569;BMP180;52211;50.154;8.682;2023-04-24T01:54:05;98805.00;;;17.40
65569;BMP180;52211;50.154;8.682;2023-04-24T01:56:41;98810.00;;;17.40
65569;BMP180;52211;50.154;8.682;2023-04-24T01:59:13;98799.00;;;17.40
65569;BMP180;52211;50.154;8.682;2023-04-24T02:01:41;98805.00;;;17.40
65569;BMP180;52211;50.154;8.682;2023-04-24T02:04:13;98804.00;;;17.30
65569;BMP180;52211;50.154;8.682;2023-04-24T02:06:45;98801.00;;;17.30
65569;BMP180;52211;50.154;8.682;2023-04-24T02:09:14;98800.00;;;17.30
65569;BMP180;52211;50.154;8.682;2023-04-24T02:11:46;98800.00;;;17.30
65569;BMP180;52211;50.154;8.682;2023-04-24T02:14:13;98807.00;;;17.30
65569;BMP180;52211;50.154;8.682;2023-04-24T02:16:42;98796.00;;;17.30
65569;BMP180;52211;50.154;8.682;2023-04-24T02:19:10;98804.00;;;17.30
65569;BMP180;52211;50.154;8.682;2023-04-24T02:21:37;98791.00;;;17.30
65569;BMP180;52211;50.154;8.682;2023-04-24T02:24:08;98796.00;;;17.20
65569;BMP180;52211;50.154;8.682;2023-04-24T02:26:37;98792.00;;;17.20
65569;BMP180;52211;50.154;8.682;2023-04-24T02:29:06;98799.00;;;17.20
65569;BMP180;52211;50.154;8.682;2023-04-24T02:31:35;98801.00;;;17.20
65569;BMP180;52211;50.154;8.682;2023-04-24T02:34:02;98798.00;;;17.10
65569;BMP180;52211;50.154;8.682;2023-04-24T02:36:31;98800.00;;;17.10
65569;BMP180;52211;50.154;8.682;2023-04-24T02:39:00;98797.00;;;17.10
65569;BMP180;52211;50.154;8.682;2023-04-24T02:41:37;98796.00;;;17.00
65569;BMP180;52211;50.154;8.682;2023-04-24T02:44:06;98794.00;;;17.00
65569;BMP180;52211;50.154;8.682;2023-04-24T02:46:41;98795.00;;;16.90
65569;BMP180;52211;50.154;8.682;2023-04-24T02:49:10;98794.00;;;16.90
65569;BMP180;52211;50.154;8.682;2023-04-24T02:51:41;98800.00;;;16.90
65569;BMP180;52211;50.154;8.682;2023-04-24T02:54:08;98801.00;;;16.90
65569;BMP180;52211;50.154;8.682;2023-04-24T02:56:41;98807.00;;;16.90
65569;BMP180;52211;50.154;8.682;2023-04-24T02:59:10;98813.00;;;16.90
65569;BMP180;52211;50.154;8.682;2023-04-24T03:01:37;98810.00;;;16.90
65569;BMP180;52211;50.154;8.682;2023-04-24T03:04:04;98822.00;;;16.80
65569;BMP180;52211;50.154;8.682;2023-04-24T03:06:33;98823.00;;;16.80
65569;BMP180;52211;50.154;8.682;2023-04-24T03:09:05;98814.00;;;16.80
65569;BMP180;52211;50.154;8.682;2023-04-24T03:11:32;98818.00;;;16.80
65569;BMP180;52211;50.154;8.682;2023-04-24T03:13:59;98817.00;;;16.80
65569;BMP180;52211;50.154;8.682;2023-04-24T03:16:29;98817.00;;;16.80
65569;BMP180;52211;50.154;8.682;2023-04-24T03:18:56;98810.00;;;16.80
65569;BMP180;52211;50.154;8.682;2023-04-24T03:21:27;98813.00;;;16.80
65569;BMP180;52211;50.154;8.682;2023-04-24T03:24:01;98816.00;;;16.80
65569;BMP180;52211;50.154;8.682;2023-04-24T03:26:30;98814.00;;;16.80
65569;BMP180;52211;50.154;8.682;2023-04-24T03:29:09;98815.00;;;16.80
65569;BMP180;52211;50.154;8.682;2023-04-24T03:31:41;98824.00;;;16.80
65569;BMP180;52211;50.154;8.682;2023-04-24T03:34:11;98827.00;;;16.80
65569;BMP180;52211;50.154;8.682;2023-04-24T03:36:38;98838.00;;;16.80
65569;BMP180;52211;50.154;8.682;2023-04-24T03:39:08;98843.00;;;16.80
65569;BMP180;52211;50.154;8.682;2023-04-24T03:41:42;98837.00;;;16.70
65569;BMP180;52211;50.154;8.682;2023-04-24T03:44:18;98836.00;;;16.70
65569;BMP180;52211;50.154;8.682;2023-04-24T03:46:50;98832.00;;;16.70
65569;BMP180;52211;50.154;8.682;2023-04-24T03:49:23;98842.00;;;16.70
65569;BMP180;52211;50.154;8.682;2023-04-24T03:51:55;98850.00;;;16.70
65569;BMP180;52211;50.154;8.682;2023-04-24T03:54:25;98850.00;;;16.70
65569;BMP180;52211;50.154;8.682;2023-04-24T03:56:54;98846.00;;;16.70
65569;BMP180;52211;50.154;8.682;2023-04-24T03:59:21;98855.00;;;16.70
65569;BMP180;52211;50.154;8.682;2023-04-24T04:02:00;98857.00;;;16.70
65569;BMP180;52211;50.154;8.682;2023-04-24T04:04:27;98863.00;;;16.70
65569;BMP180;52211;50.154;8.682;2023-04-24T04:06:59;98861.00;;;16.60
65569;BMP180;52211;50.154;8.682;2023-04-24T04:09:30;98862.00;;;16.70
65569;BMP180;52211;50.154;8.682;2023-04-24T04:11:57;98866.00;;;16.70
65569;BMP180;52211;50.154;8.682;2023-04-24T04:14:31;98877.00;;;16.70
65569;BMP180;52211;50.154;8.682;2023-04-24T04:16:58;98869.00;;;16.70
65569;BMP180;52211;50.154;8.682;2023-04-24T04:19:27;98876.00;;;16.70
65569;BMP180;52211;50.154;8.682;2023-04-24T04:21:57;98873.00;;;16.70
65569;BMP180;52211;50.154;8.682;2023-04-24T04:24:35;98888.00;;;16.70
65569;BMP180;52211;50.154;8.682;2023-04-24T04:27:09;98896.00;;;16.70
65569;BMP180;52211;50.154;8.682;2023-04-24T04:29:47;98888.00;;;16.70
65569;BMP180;52211;50.154;8.682;2023-04-24T04:32:15;98891.00;;;16.60
65569;BMP180;52211;50.154;8.682;2023-04-24T04:34:45;98888.00;;;16.60
65569;BMP180;52211;50.154;8.682;2023-04-24T04:37:16;98898.00;;;16.60
65569;BMP180;52211;50.154;8.682;2023-04-24T04:39:50;98901.00;;;16.60
65569;BMP180;52211;50.154;8.682;2023-04-24T04:42:21;98910.00;;;16.50
65569;BMP180;52211;50.154;8.682;2023-04-24T04:44:50;98899.00;;;16.40
65569;BMP180;52211;50.154;8.682;2023-04-24T04:47:26;98905.00;;;16.30
65569;BMP180;52211;50.154;8.682;2023-04-24T04:49:59;98908.00;;;16.30
65569;BMP180;52211;50.154;8.682;2023-04-24T04:52:34;98915.00;;;16.20
65569;BMP180;52211;50.154;8.682;2023-04-24T04:55:12;98907.00;;;16.20
65569;BMP180;52211;50.154;8.682;2023-04-24T04:58:04;98908.00;;;16.20
65569;BMP180;52211;50.154;8.682;2023-04-24T05:00:35;98911.00;;;16.10
65569;BMP180;52211;50.154;8.682;2023-04-24T05:03:14;98916.00;;;16.10
65569;BMP180;52211;50.154;8.682;2023-04-24T05:05:52;98916.00;;;16.10
65569;BMP180;52211;50.154;8.682;2023-04-24T05:08:24;98924.00;;;16.00
65569;BMP180;52211;50.154;8.682;2023-04-24T05:10:55;98929.00;;;16.00
65569;BMP180;52211;50.154;8.682;2023-04-24T05:13:29;98938.00;;;15.90
65569;BMP180;52211;50.154;8.682;2023-04-24T05:16:10;98936.00;;;15.90
65569;BMP180;52211;50.154;8.682;2023-04-24T05:18:40;98932.00;;;15.90
65569;BMP180;52211;50.154;8.682;2023-04-24T05:21:11;98935.00;;;15.80
65569;BMP180;52211;50.154;8.682;2023-04-24T05:23:43;98940.00;;;15.80
65569;BMP180;52211;50.154;8.682;2023-04-24T05:26:16;98947.00;;;15.80
65569;BMP180;52211;50.154;8.682;2023-04-24T05:28:46;98955.00;;;15.80
65569;BMP180;52211;50.154;8.682;2023-04-24T05:31:18;98956.00;;;15.80
65569;BMP180;52211;50.154;8.682;2023-04-24T05:33:45;98956.00;;;15.70
65569;BMP180;52211;50.154;8.682;2023-04-24T05:36:14;98957.00;;;15.70
65569;BMP180;52211;50.154;8.682;2023-04-24T05:38:42;98960.00;;;15.70
65569;BMP180;52211;50.154;8.682;2023-04-24T05:41:11;98962.00;;;15.70
65569;BMP180;52211;50.154;8.682;2023-04-24T05:43:37;98978.00;;;15.80
65569;BMP180;52211;50.154;8.682;2023-04-24T05:46:05;98965.00;;;15.70
65569;BMP180;52211;50.154;8.682;2023-04-24T05:48:34;98975.00;;;15.70
65569;BMP180;52211;50.154;8.682;2023-04-24T05:51:08;98985.00;;;15.70
65569;BMP180;52211;50.154;8.682;2023-04-24T05:53:36;99009.00;;;15.70
65569;BMP180;52211;50.154;8.682;2023-04-24T05:56:07;98983.00;;;15.60
65569;BMP180;52211;50.154;8.682;2023-04-24T05:58:37;98995.00;;;15.60
65569;BMP180;52211;50.154;8.682;2023-04-24T06:01:07;99003.00;;;15.60
65569;BMP180;52211;50.154;8.682;2023-04-24T06:03:38;98993.00;;;15.60
65569;BMP180;52211;50.154;8.682;2023-04-24T06:06:07;98996.00;;;15.60
65569;BMP180;52211;50.154;8.682;2023-04-24T06:08:35;99001.00;;;15.70
65569;BMP180;52211;50.154;8.682;2023-04-24T06:11:02;99007.00;;;15.70
65569;BMP180;52211;50.154;8.682;2023-04-24T06:13:31;99010.00;;;15.70
65569;BMP180;52211;50.154;8.682;2023-04-24T06:16:24;99020.00;;;15.70
65569;BMP180;52211;50.154;8.682;2023-04-24T06:18:57;99016.00;;;15.70
65569;BMP180;52211;50.154;8.682;2023-04-24T06:21:24;99024.00;;;15.70
65569;BMP180;52211;50.154;8.682;2023-04-24T06:23:52;99023.00;;;15.80
65569;BMP180;52211;50.154;8.682;2023-04-24T06:26:24;99027.00;;;15.70
65569;BMP180;52211;50.154;8.682;2023-04-24T06:28:57;99027.00;;;15.70
65569;BMP180;52211;50.154;8.682;2023-04-24T06:31:25;99035.00;;;15.70
65569;BMP180;52211;50.154;8.682;2023-04-24T06:33:53;99032.00;;;15.70
65569;BMP180;52211;50.154;8.682;2023-04-24T06:36:20;99032.00;;;15.70
65569;BMP180;52211;50.154;8.682;2023-04-24T06:38:47;99032.00;;;15.70
65569;BMP180;52211;50.154;8.682;2023-04-24T06:41:19;99030.00;;;15.70
65569;BMP180;52211;50.154;8.682;2023-04-24T06:43:48;99025.00;;;15.70
65569;BMP180;52211;50.154;8.682;2023-04-24T06:46:15;99026.00;;;15.70
65569;BMP180;52211;50.154;8.682;2023-04-24T06:48:45;99041.00;;;15.70
65569;BMP180;52211;50.154;8.682;2023-04-24T06:51:17;99031.00;;;15.70
65569;BMP180;52211;50.154;8.682;2023-04-24T06:53:44;99035.00;;;15.70
65569;BMP180;52211;50.154;8.682;2023-04-24T06:56:19;99034.00;;;15.70
65569;BMP180;52211;50.154;8.682;2023-04-24T06:58:48;99035.00;;;15.70
65569;BMP180;52211;50.154;8.682;2023-04-24T07:01:16;99032.00;;;15.60
65569;BMP180;52211;50.154;8.682;2023-04-24T07:03:43;99025.00;;;15.60
65569;BMP180;52211;50.154;8.682;2023-04-24T07:06:10;99016.00;;;15.60
65569;BMP180;52211;50.154;8.682;2023-04-24T07:08:39;99020.00;;;15.60
65569;BMP180;52211;50.154;8.682;2023-04-24T07:11:10;99013.00;;;15.60
65569;BMP180;52211;50.154;8.682;2023-04-24T07:13:37;99010.00;;;15.60
65569;BMP180;52211;50.154;8.682;2023-04-24T07:16:11;99005.00;;;15.60
65569;BMP180;52211;50.154;8.682;2023-04-24T07:18:38;99002.00;;;15.60
65569;BMP180;52211;50.154;8.682;2023-04-24T07:21:08;99021.00;;;15.60
65569;BMP180;52211;50.154;8.682;2023-04-24T07:23:38;99008.00;;;15.60
65569;BMP180;52211;50.154;8.682;2023-04-24T07:26:05;99009.00;;;15.60
65569;BMP180;52211;50.154;8.682;2023-04-24T07:28:34;99005.00;;;15.60
65569;BMP180;52211;50.154;8.682;2023-04-24T07:31:01;99005.00;;;15.70
65569;BMP180;52211;50.154;8.682;2023-04-24T07:33:28;99012.00;;;15.70
65569;BMP180;52211;50.154;8.682;2023-04-24T07:35:55;99008.00;;;15.80
65569;BMP180;52211;50.154;8.682;2023-04-24T07:38:24;99000.00;;;15.80
65569;BMP180;52211;50.154;8.682;2023-04-24T07:40:59;99014.00;;;15.90
65569;BMP180;52211;50.154;8.682;2023-04-24T07:43:26;99016.00;;;15.90
65569;BMP180;52211;50.154;8.682;2023-04-24T07:45:56;99004.00;;;16.00
65569;BMP180;52211;50.154;8.682;2023-04-24T07:48:25;99008.00;;;16.00
65569;BMP180;52211;50.154;8.682;2023-04-24T07:50:53;99010.00;;;16.10
65569;BMP180;52211;50.154;8.682;2023-04-24T07:53:22;99014.00;;;16.10
65569;BMP180;52211;50.154;8.682;2023-04-24T07:55:54;99035.00;;;16.20
65569;BMP180;52211;50.154;8.682;2023-04-24T07:58:23;99047.00;;;16.20
65569;BMP180;52211;50.154;8.682;2023-04-24T08:00:52;99028.00;;;16.30
65569;BMP180;52211;50.154;8.682;2023-04-24T08:03:19;99030.00;;;16.40
65569;BMP180;52211;50.154;8.682;2023-04-24T08:05:49;99031.00;;;16.50
65569;BMP180;52211;50.154;8.682;2023-04-24T08:08:22;99034.00;;;16.50
65569;BMP180;52211;50.154;8.682;2023-04-24T08:10:54;99030.00;;;16.50
65569;BMP180;52211;50.154;8.682;2023-04-24T08:13:26;99030.00;;;16.50
65569;BMP180;52211;50.154;8.682;2023-04-24T08:15:53;99038.00;;;16.50
65569;BMP180;52211;50.154;8.682;2023-04-24T08:18:24;99030.00;;;16.50
65569;BMP180;52211;50.154;8.682;2023-04-24T08:20:53;99029.00;;;16.50
65569;BMP180;52211;50.154;8.682;2023-04-24T08:23:23;99037.00;;;16.50
65569;BMP180;52211;50.154;8.682;2023-04-24T08:25:52;99040.00;;;16.60
65569;BMP180;52211;50.154;8.682;2023-04-24T08:28:21;99039.00;;;16.60
65569;BMP180;52211;50.154;8.682;2023-04-24T08:30:50;99061.00;;;16.60
65569;BMP180;52211;50.154;8.682;2023-04-24T08:33:24;99039.00;;;16.60
65569;BMP180;52211;50.154;8.682;2023-04-24T08:35:52;99053.00;;;16.70
65569;BMP180;52211;50.154;8.682;2023-04-24T08:38:19;99058.00;;;16.70
65569;BMP180;52211;50.154;8.682;2023-04-24T08:40:48;99063.00;;;16.80
65569;BMP180;52211;50.154;8.682;2023-04-24T08:43:22;99062.00;;;16.80
65569;BMP180;52211;50.154;8.682;2023-04-24T08:45:56;99077.00;;;16.90
65569;BMP180;52211;50.154;8.682;2023-04-24T08:48:23;99095.00;;;17.00
65569;BMP180;52211;50.154;8.682;2023-04-24T08:50:59;99073.00;;;17.00
65569;BMP180;52211;50.154;8.682;2023-04-24T08:53:27;99076.00;;;17.10
65569;BMP180;52211;50.154;8.682;2023-04-24T08:55:57;99092.00;;;17.10
65569;BMP180;52211;50.154;8.682;2023-04-24T08:58:28;99110.00;;;17.00
65569;BMP180;52211;50.154;8.682;2023-04-24T09:00:58;99092.00;;;17.00
65569;BMP180;52211;50.154;8.682;2023-04-24T09:03:28;99095.00;;;17.10
65569;BMP180;52211;50.154;8.682;2023-04-24T09:05:59;99089.00;;;17.10
65569;BMP180;52211;50.154;8.682;2023-04-24T09:08:30;99096.00;;;17.00
65569;BMP180;52211;50.154;8.682;2023-04-24T09:10:57;99103.00;;;17.00
65569;BMP180;52211;50.154;8.682;2023-04-24T09:13:26;99102.00;;;17.00
65569;BMP180;52211;50.154;8.682;2023-04-24T09:15:57;99095.00;;;17.00
65569;BMP180;52211;50.154;8.682;2023-04-24T09:18:27;99097.00;;;17.00
65569;BMP180;52211;50.154;8.682;2023-04-24T09:21:02;99086.00;;;16.90
65569;BMP180;52211;50.154;8.682;2023-04-24T09:23:34;99080.00;;;16.90
65569;BMP180;52211;50.154;8.682;2023-04-24T09:26:05;99098.00;;;16.90
65569;BMP180;52211;50.154;8.682;2023-04-24T09:28:39;99099.00;;;16.90
65569;BMP180;52211;50.154;8.682;2023-04-24T09:31:17;99101.00;;;16.90
65569;BMP180;52211;50.154;8.682;2023-04-24T09:36:33;99122.00;;;16.80
65569;BMP180;52211;50.154;8.682;2023-04-24T09:39:07;99125.00;;;16.80
65569;BMP180;52211;50.154;8.682;2023-04-24T09:41:52;99125.00;;;16.80
65569;BMP180;52211;50.154;8.682;2023-04-24T09:44:22;99120.00;;;16.80
65569;BMP180;52211;50.154;8.682;2023-04-24T09:49:27;99129.00;;;16.80
65569;BMP180;52211;50.154;8.682;2023-04-24T09:52:10;99134.00;;;16.80
65569;BMP180;52211;50.154;8.682;2023-04-24T09:54:40;99142.00;;;16.80
65569;BMP180;52211;50.154;8.682;2023-04-24T09:57:09;99139.00;;;16.80
65569;BMP180;52211;50.154;8.682;2023-04-24T09:59:46;99143.00;;;16.80
65569;BMP180;52211;50.154;8.682;2023-04-24T10:02:20;99142.00;;;16.80
65569;BMP180;52211;50.154;8.682;2023-04-24T10:04:56;99145.00;;;16.80
65569;BMP180;52211;50.154;8.682;2023-04-24T10:07:26;99144.00;;;16.70
65569;BMP180;52211;50.154;8.682;2023-04-24T10:10:00;99135.00;;;16.70
65569;BMP180;52211;50.154;8.682;2023-04-24T10:12:32;99149.00;;;16.70
65569;BMP180;52211;50.154;8.682;2023-04-24T10:15:02;99147.00;;;16.80
65569;BMP180;52211;50.154;8.682;2023-04-24T10:17:32;99157.00;;;16.80
65569;BMP180;52211;50.154;8.682;2023-04-24T10:20:02;99154.00;;;16.80
65569;BMP180;52211;50.154;8.682;2023-04-24T10:22:29;99162.00;;;16.80
65569;BMP180;52211;50.154;8.682;2023-04-24T10:25:06;99169.00;;;16.80
65569;BMP180;52211;50.154;8.682;2023-04-24T10:27:37;99171.00;;;16.80
65569;BMP180;52211;50.154;8.682;2023-04-24T10:30:07;99177.00;;;16.80
65569;BMP180;52211;50.154;8.682;2023-04-24T10:32:39;99184.00;;;16.80
65569;BMP180;52211;50.154;8.682;2023-04-24T10:35:15;99192.00;;;16.80
65569;BMP180;52211;50.154;8.682;2023-04-24T10:37:52;99200.00;;;16.80
65569;BMP180;52211;50.154;8.682;2023-04-24T10:40:35;99213.00;;;16.70
65569;BMP180;52211;50.154;8.682;2023-04-24T10:43:05;99221.00;;;16.70
65569;BMP180;52211;50.154;8.682;2023-04-24T10:45:35;99216.00;;;16.60
65569;BMP180;52211;50.154;8.682;2023-04-24T10:48:08;99224.00;;;16.50
65569;BMP180;52211;50.154;8.682;2023-04-24T10:50:51;99229.00;;;16.40
65569;BMP180;52211;50.154;8.682;2023-04-24T10:53:29;99226.00;;;16.40
65569;BMP180;52211;50.154;8.682;2023-04-24T10:58:42;99220.00;;;16.30
65569;BMP180;52211;50.154;8.682;2023-04-24T11:01:32;99223.00;;;16.30
65569;BMP180;52211;50.154;8.682;2023-04-24T11:04:02;99217.00;;;16.30
65569;BMP180;52211;50.154;8.682;2023-04-24T11:06:40;99224.00;;;16.30
65569;BMP180;52211;50.154;8.682;2023-04-24T11:09:09;99218.00;;;16.40
65569;BMP180;52211;50.154;8.682;2023-04-24T11:11:45;99216.00;;;16.40
65569;BMP180;52211;50.154;8.682;2023-04-24T11:14:16;99232.00;;;16.50
65569;BMP180;52211;50.154;8.682;2023-04-24T11:16:53;99218.00;;;16.50
65569;BMP180;52211;50.154;8.682;2023-04-24T11:19:26;99220.00;;;16.60
65569;BMP180;52211;50.154;8.682;2023-04-24T11:22:04;99220.00;;;16.60
65569;BMP180;52211;50.154;8.682;2023-04-24T11:24:39;99231.00;;;16.60
65569;BMP180;52211;50.154;8.682;2023-04-24T11:27:17;99220.00;;;16.70
65569;BMP180;52211;50.154;8.682;2023-04-24T11:35:19;99225.00;;;17.10
65569;BMP180;52211;50.154;8.682;2023-04-24T11:37:54;99227.00;;;17.30
65569;BMP180;52211;50.154;8.682;2023-04-24T11:40:44;99226.00;;;17.50
65569;BMP180;52211;50.154;8.682;2023-04-24T11:43:12;99228.00;;;17.60
65569;BMP180;52211;50.154;8.682;2023-04-24T11:45:50;99224.00;;;17.70
65569;BMP180;52211;50.154;8.682;2023-04-24T11:48:23;99246.00;;;17.70
65569;BMP180;52211;50.154;8.682;2023-04-24T11:50:53;99245.00;;;17.80
65569;BMP180;52211;50.154;8.682;2023-04-24T11:53:22;99252.00;;;17.70
65569;BMP180;52211;50.154;8.682;2023-04-24T11:55:51;99249.00;;;17.50
65569;BMP180;52211;50.154;8.682;2023-04-24T11:58:25;99247.00;;;17.40
65569;BMP180;52211;50.154;8.682;2023-04-24T12:00:57;99251.00;;;17.30
65569;BMP180;52211;50.154;8.682;2023-04-24T12:03:27;99253.00;;;17.30
65569;BMP180;52211;50.154;8.682;2023-04-24T12:06:09;99251.00;;;17.30
65569;BMP180;52211;50.154;8.682;2023-04-24T12:08:39;99252.00;;;17.30
65569;BMP180;52211;50.154;8.682;2023-04-24T12:11:08;99252.00;;;17.30
65569;BMP180;52211;50.154;8.682;2023-04-24T12:13:38;99252.00;;;17.30
65569;BMP180;52211;50.154;8.682;2023-04-24T12:16:05;99256.00;;;17.30
65569;BMP180;52211;50.154;8.682;2023-04-24T12:18:40;99257.00;;;17.30
65569;BMP180;52211;50.154;8.682;2023-04-24T12:21:24;99258.00;;;17.30
65569;BMP180;52211;50.154;8.682;2023-04-24T12:23:55;99272.00;;;17.30
65569;BMP180;52211;50.154;8.682;2023-04-24T12:26:27;99289.00;;;17.30
65569;BMP180;52211;50.154;8.682;2023-04-24T12:29:05;99293.00;;;17.20
65569;BMP180;52211;50.154;8.682;2023-04-24T12:31:37;99300.00;;;17.10
65569;BMP180;52211;50.154;8.682;2023-04-24T12:34:23;99285.00;;;16.80
65569;BMP180;52211;50.154;8.682;2023-04-24T12:36:52;99275.00;;;16.70
65569;BMP180;52211;50.154;8.682;2023-04-24T12:39:24;99269.00;;;16.60
65569;BMP180;52211;50.154;8.682;2023-04-24T12:41:57;99268.00;;;16.60
65569;BMP180;52211;50.154;8.682;2023-04-24T12:44:37;99261.00;;;16.70
65569;BMP180;52211;50.154;8.682;2023-04-24T12:47:06;99264.00;;;16.70
65569;BMP180;52211;50.154;8.682;2023-04-24T12:49:41;99275.00;;;16.80
65569;BMP180;52211;50.154;8.682;2023-04-24T12:52:10;99270.00;;;16.90
65569;BMP180;52211;50.154;8.682;2023-04-24T12:54:37;99280.00;;;16.90
65569;BMP180;52211;50.154;8.682;2023-04-24T12:57:06;99274.00;;;17.00
65569;BMP180;52211;50.154;8.682;2023-04-24T12:59:35;99272.00;;;17.00
65569;BMP180;52211;50.154;8.682;2023-04-24T13:02:07;99268.00;;;17.10
65569;BMP180;52211;50.154;8.682;2023-04-24T13:04:38;99267.00;;;17.20
65569;BMP180;52211;50.154;8.682;2023-04-24T13:07:07;99266.00;;;17.30
65569;BMP180;52211;50.154;8.682;2023-04-24T13:09:34;99272.00;;;17.40
65569;BMP180;52211;50.154;8.682;2023-04-24T13:12:02;99276.00;;;17.60
65569;BMP180;52211;50.154;8.682;2023-04-24T13:14:34;99266.00;;;17.70
65569;BMP180;52211;50.154;8.682;2023-04-24T13:17:04;99259.00;;;17.80
65569;BMP180;52211;50.154;8.682;2023-04-24T13:19:39;99267.00;;;17.90
65569;BMP180;52211;50.154;8.682;2023-04-24T13:22:08;99266.00;;;18.10
65569;BMP180;52211;50.154;8.682;2023-04-24T13:24:41;99273.00;;;18.10
65569;BMP180;52211;50.154;8.682;2023-04-24T13:27:09;99263.00;;;18.20
65569;BMP180;52211;50.154;8.682;2023-04-24T13:29:38;99283.00;;;18.20
65569;BMP180;52211;50.154;8.682;2023-04-24T13:32:06;99271.00;;;18.20
65569;BMP180;52211;50.154;8.682;2023-04-24T13:34:35;99274.00;;;18.20
65569;BMP180;52211;50.154;8.682;2023-04-24T13:37:09;99277.00;;;18.20
65569;BMP180;52211;50.154;8.682;2023-04-24T13:39:40;99291.00;;;18.10
65569;BMP180;52211;50.154;8.682;2023-04-24T13:42:13;99338.00;;;18.00
65569;BMP180;52211;50.154;8.682;2023-04-24T13:44:45;99293.00;;;17.70
65569;BMP180;52211;50.154;8.682;2023-04-24T13:47:12;99299.00;;;17.50
65569;BMP180;52211;50.154;8.682;2023-04-24T13:49:44;99298.00;;;17.50
65569;BMP180;52211;50.154;8.682;2023-04-24T13:52:13;99297.00;;;17.50
65569;BMP180;52211;50.154;8.682;2023-04-24T13:54:42;99300.00;;;17.60
65569;BMP180;52211;50.154;8.682;2023-04-24T13:57:09;99306.00;;;17.70
65569;BMP180;52211;50.154;8.682;2023-04-24T13:59:41;99308.00;;;17.80
65569;BMP180;52211;50.154;8.682;2023-04-24T14:02:07;99306.00;;;17.80
65569;BMP180;52211;50.154;8.682;2023-04-24T14:04:37;99299.00;;;17.80
65569;BMP180;52211;50.154;8.682;2023-04-24T14:07:07;99306.00;;;17.80
65569;BMP180;52211;50.154;8.682;2023-04-24T14:09:40;99300.00;;;17.80
65569;BMP180;52211;50.154;8.682;2023-04-24T14:12:07;99305.00;;;17.80
65569;BMP180;52211;50.154;8.682;2023-04-24T14:14:37;99293.00;;;18.00
65569;BMP180;52211;50.154;8.682;2023-04-24T14:17:08;99297.00;;;18.20
65569;BMP180;52211;50.154;8.682;2023-04-24T14:19:35;99300.00;;;18.50
65569;BMP180;52211;50.154;8.682;2023-04-24T14:22:07;99296.00;;;18.80
65569;BMP180;52211;50.154;8.682;2023-04-24T14:24:34;99273.00;;;19.00
65569;BMP180;52211;50.154;8.682;2023-04-24T14:27:03;99296.00;;;19.10
65569;BMP180;52211;50.154;8.682;2023-04-24T14:29:32;99277.00;;;19.20
65569;BMP180;52211;50.154;8.682;2023-04-24T14:32:01;99286.00;;;19.30
65569;BMP180;52211;50.154;8.682;2023-04-24T14:34:30;99283.00;;;19.30
65569;BMP180;52211;50.154;8.682;2023-04-24T14:36:59;99289.00;;;19.20
65569;BMP180;52211;50.154;8.682;2023-04-24T14:39:30;99280.00;;;19.20
65569;BMP180;52211;50.154;8.682;2023-04-24T14:42:00;99287.00;;;19.10
65569;BMP180;52211;50.154;8.682;2023-04-24T14:44:29;99292.00;;;19.00